Praha, Texas
Current Conditions -  °F | °C
As of 12:15 PM on Friday 28 Nov 2014 (Local Time) from K3T5 Reporting Station
Scattered Clouds Scattered Clouds  
Wind Chill: 71°   Ceiling: Unl
Heat Index: 71°   Visibility: 10mi
Dew Point: 56°   Wind: 9mph
Humidity: 60%   Direction: 190°S
Pressure: 30.22"   Gusts: NA
Location:  29.7626°N, 97.1228°W
Report Text: K3T5 281815Z AUTO 19008KT 10SM SCT035 21/13 A3022 RMK AO2 T02140134
Loading
Personal Weather Stations






























Interactive Weather Map New forecast layout! Learn more

10-Day Weather Forecast

Advertisements
Track Severe Weather on mobile